Time;durP1;ratioP1;P1;durP2;ratioP2;P2;SDS_P1;SDS_P2;PMS_P1;PMS_P2;Temp;Humidity;BMP_temperature;BMP_pressure;BME280_temperature;BME280_humidity;BME280_pressure;Samples;Min_cycle;Max_cycle;Signal;HPM_P1;HPM_P2
2023/03/14 00:00:09;;;;;;;1.93;1.07;;;9.40;99.90;;;;;;5093207;28;20210;-81
2023/03/14 00:02:39;;;;;;;2.30;1.27;;;9.30;99.90;;;;;;5093849;28;20237;-79
2023/03/14 00:05:09;;;;;;;1.20;1.10;;;9.30;99.90;;;;;;5094329;28;20222;-79
2023/03/14 00:07:39;;;;;;;1.30;1.03;;;9.20;99.90;;;;;;5093642;28;20253;-80
2023/03/14 00:10:10;;;;;;;0.90;0.90;;;9.10;99.90;;;;;;5093097;28;20607;-79
2023/03/14 00:12:39;;;;;;;1.10;1.00;;;9.00;99.90;;;;;;5093516;28;20241;-80
2023/03/14 00:15:08;;;;;;;3.23;0.93;;;9.00;99.90;;;;;;5094332;28;20215;-80
2023/03/14 00:17:39;;;;;;;1.30;0.80;;;8.90;99.90;;;;;;5093169;28;20227;-81
2023/03/14 00:20:10;;;;;;;1.57;0.70;;;9.00;99.90;;;;;;5094097;28;20195;-79
2023/03/14 00:22:39;;;;;;;1.07;0.60;;;9.00;99.90;;;;;;5093104;28;20215;-80
2023/03/14 00:25:09;;;;;;;2.40;0.90;;;9.00;99.90;;;;;;5093773;28;20656;-80
2023/03/14 00:27:37;;;;;;;0.73;0.73;;;9.00;99.90;;;;;;5076732;28;20656;-79
2023/03/14 00:30:07;;;;;;;0.93;0.80;;;9.00;99.90;;;;;;5073531;28;20234;-78
2023/03/14 00:32:36;;;;;;;0.97;0.70;;;9.00;99.90;;;;;;5072974;28;20575;-79
2023/03/14 00:35:07;;;;;;;1.10;0.80;;;9.00;99.90;;;;;;5073544;28;20207;-79
2023/03/14 00:37:35;;;;;;;1.10;0.90;;;8.90;99.90;;;;;;5091696;28;20720;-80
2023/03/14 00:40:06;;;;;;;1.70;0.70;;;9.00;99.90;;;;;;5093478;28;20207;-80
2023/03/14 00:42:34;;;;;;;0.60;0.60;;;9.00;99.90;;;;;;5093071;28;20213;-79
2023/03/14 00:45:03;;;;;;;1.30;0.70;;;9.00;99.90;;;;;;5091893;28;20218;-78
2023/03/14 00:47:31;;;;;;;0.50;0.50;;;9.00;99.90;;;;;;5093271;28;20207;-79
2023/03/14 00:49:59;;;;;;;0.40;0.40;;;9.10;99.90;;;;;;5093302;28;20298;-79
2023/03/14 00:52:29;;;;;;;1.37;0.43;;;9.10;99.90;;;;;;5092901;28;20206;-80
2023/03/14 00:54:57;;;;;;;0.83;0.50;;;9.10;99.90;;;;;;5092115;28;20242;-81
2023/03/14 00:57:25;;;;;;;0.60;0.37;;;9.10;99.90;;;;;;5092858;28;20587;-79
2023/03/14 00:59:53;;;;;;;0.77;0.40;;;9.20;99.90;;;;;;5093203;28;20257;-80
2023/03/14 01:02:21;;;;;;;0.40;0.40;;;9.20;99.90;;;;;;5090980;28;20209;-80
2023/03/14 01:04:50;;;;;;;0.40;0.40;;;9.20;99.90;;;;;;5093014;28;20628;-80
2023/03/14 01:07:18;;;;;;;0.50;0.50;;;9.30;99.90;;;;;;5092662;28;20322;-80
2023/03/14 01:09:48;;;;;;;0.80;0.70;;;9.30;99.90;;;;;;5088539;28;20310;-79
2023/03/14 01:12:16;;;;;;;0.50;0.50;;;9.30;99.90;;;;;;5072006;28;20298;-79
2023/03/14 01:14:44;;;;;;;0.50;0.37;;;9.40;99.90;;;;;;5072159;28;20213;-80
2023/03/14 01:17:12;;;;;;;1.20;0.50;;;9.40;99.90;;;;;;5072465;28;20602;-79
2023/03/14 01:19:40;;;;;;;0.50;0.50;;;9.50;99.90;;;;;;5083821;28;20306;-78
2023/03/14 01:22:11;;;;;;;0.40;0.40;;;9.50;99.90;;;;;;5092134;28;20672;-79
2023/03/14 01:24:39;;;;;;;0.50;0.50;;;9.60;99.90;;;;;;5092668;28;20237;-79
2023/03/14 01:27:09;;;;;;;0.70;0.40;;;9.60;99.90;;;;;;5092254;28;20284;-79
2023/03/14 01:29:37;;;;;;;0.40;0.40;;;9.60;99.90;;;;;;5090979;28;20814;-78
2023/03/14 01:32:05;;;;;;;0.40;0.40;;;9.60;99.90;;;;;;5092008;28;20218;-80
2023/03/14 01:34:33;;;;;;;0.83;0.60;;;9.60;99.90;;;;;;5092997;28;20306;-79
2023/03/14 01:37:01;;;;;;;0.90;0.63;;;9.60;99.90;;;;;;5092916;28;20231;-79
2023/03/14 01:39:29;;;;;;;0.60;0.57;;;9.60;99.90;;;;;;5100217;28;20313;-79
2023/03/14 01:41:59;;;;;;;1.83;0.60;;;9.60;99.90;;;;;;5097657;28;20215;-78
2023/03/14 01:44:28;;;;;;;0.73;0.60;;;9.60;99.90;;;;;;5093661;28;20214;-79
2023/03/14 01:46:58;;;;;;;0.43;0.43;;;9.60;99.90;;;;;;5095485;28;20203;-79
2023/03/14 01:49:32;;;;;;;1.00;0.50;;;9.50;99.90;;;;;;5099329;28;20468;-81
2023/03/14 01:52:03;;;;;;;1.50;0.43;;;9.50;99.90;;;;;;5097599;28;20207;-81
2023/03/14 01:54:35;;;;;;;1.17;0.60;;;9.40;99.90;;;;;;5097211;28;20191;-80
2023/03/14 01:57:09;;;;;;;0.50;0.47;;;9.40;99.90;;;;;;5099860;28;20412;-82
2023/03/14 01:59:41;;;;;;;0.97;0.67;;;9.30;99.90;;;;;;5101390;28;20217;-80
2023/03/14 02:02:14;;;;;;;0.50;0.50;;;9.30;99.90;;;;;;5098127;28;20206;-81
2023/03/14 02:04:43;;;;;;;1.80;0.50;;;9.30;99.90;;;;;;5096759;28;20688;-82
2023/03/14 02:07:16;;;;;;;0.77;0.40;;;9.30;99.90;;;;;;5079949;28;20223;-82
2023/03/14 02:09:45;;;;;;;1.67;0.87;;;9.20;99.90;;;;;;5079856;28;20219;-80
2023/03/14 02:12:16;;;;;;;0.80;0.60;;;9.10;99.90;;;;;;5077297;28;20608;-81
2023/03/14 02:14:47;;;;;;;1.27;0.70;;;9.10;99.90;;;;;;5084336;28;20226;-82
2023/03/14 02:17:18;;;;;;;1.13;0.70;;;9.00;99.90;;;;;;5096672;28;20273;-80
2023/03/14 02:19:59;;;;;;;1.33;0.60;;;9.00;99.90;;;;;;5096470;28;20238;-82
2023/03/14 02:22:27;;;;;;;2.07;0.60;;;8.90;99.90;;;;;;5095222;28;20194;-81
2023/03/14 02:25:03;;;;;;;1.27;0.90;;;8.90;99.90;;;;;;5094762;28;20401;-82
2023/03/14 02:27:34;;;;;;;0.73;0.50;;;8.90;99.90;;;;;;5096861;28;20209;-82
2023/03/14 02:30:06;;;;;;;1.03;0.60;;;8.90;99.90;;;;;;5096266;28;20187;-82
2023/03/14 02:32:36;;;;;;;0.90;0.50;;;8.80;99.90;;;;;;5096383;28;20257;-82
2023/03/14 02:35:10;;;;;;;1.70;0.50;;;8.80;99.90;;;;;;5076886;28;20211;-80
2023/03/14 02:37:43;;;;;;;1.37;0.50;;;8.70;99.90;;;;;;5095514;28;20635;-81
2023/03/14 02:40:12;;;;;;;1.70;0.57;;;8.70;99.90;;;;;;5094678;28;20298;-83
2023/03/14 02:42:41;;;;;;;1.70;0.80;;;8.60;99.90;;;;;;5093279;28;20226;-81
2023/03/14 02:45:35;;;;;;;1.40;0.70;;;8.60;99.90;;;;;;5092699;28;20698;-80
2023/03/14 02:48:07;;;;;;;3.20;0.70;;;8.60;99.90;;;;;;5075636;28;20242;-81
2023/03/14 02:50:36;;;;;;;2.40;0.47;;;8.50;99.90;;;;;;5095861;28;20242;-81
2023/03/14 02:53:04;;;;;;;1.53;0.60;;;8.50;99.90;;;;;;5097624;28;20213;-80
2023/03/14 02:55:32;;;;;;;0.40;0.40;;;8.50;99.90;;;;;;5099373;28;20268;-81
2023/03/14 02:58:01;;;;;;;0.40;0.40;;;8.50;99.90;;;;;;5101599;28;20268;-80
2023/03/14 03:00:30;;;;;;;1.90;0.57;;;8.50;99.90;;;;;;5103104;28;20215;-80
2023/03/14 03:02:58;;;;;;;0.93;0.50;;;8.50;99.90;;;;;;5109001;28;20207;-82
2023/03/14 03:05:26;;;;;;;0.60;0.60;;;8.40;99.90;;;;;;5110142;28;20310;-84
2023/03/14 03:07:56;;;;;;;1.37;0.60;;;8.40;99.90;;;;;;5106268;28;20219;-81
2023/03/14 03:10:25;;;;;;;0.47;0.40;;;8.40;99.90;;;;;;5085741;28;20215;-82
2023/03/14 03:12:54;;;;;;;0.27;0.27;;;8.50;99.90;;;;;;5086986;28;20204;-79
2023/03/14 03:15:23;;;;;;;0.73;0.50;;;8.40;99.90;;;;;;5087789;28;20207;-82
2023/03/14 03:17:52;;;;;;;1.03;0.40;;;8.40;99.90;;;;;;5085977;28;20234;-80
2023/03/14 03:20:20;;;;;;;1.20;0.70;;;8.40;99.90;;;;;;5086067;28;20204;-81
2023/03/14 03:22:49;;;;;;;0.87;0.37;;;8.40;99.90;;;;;;5088499;28;20227;-80
2023/03/14 03:25:18;;;;;;;0.73;0.40;;;8.40;99.90;;;;;;5097536;28;20226;-81
2023/03/14 03:27:46;;;;;;;0.97;0.80;;;8.30;99.90;;;;;;5113189;28;20259;-82
2023/03/14 03:30:15;;;;;;;2.00;0.50;;;8.30;99.90;;;;;;5113905;28;20275;-81
2023/03/14 03:32:44;;;;;;;1.70;0.70;;;8.30;99.90;;;;;;5112836;28;20206;-82
2023/03/14 03:35:13;;;;;;;1.77;0.57;;;8.30;99.90;;;;;;5113637;28;20214;-81
2023/03/14 03:37:42;;;;;;;0.43;0.43;;;8.30;99.90;;;;;;5112632;28;20227;-83
2023/03/14 03:40:11;;;;;;;0.83;0.60;;;8.30;99.90;;;;;;5112695;28;20290;-82
2023/03/14 03:42:39;;;;;;;1.00;0.37;;;8.30;99.90;;;;;;5111442;28;20256;-82
2023/03/14 03:45:08;;;;;;;1.07;0.40;;;8.30;99.90;;;;;;5108443;28;20215;-80
2023/03/14 03:47:36;;;;;;;2.33;0.47;;;8.40;99.90;;;;;;5098566;28;20206;-82
2023/03/14 03:50:07;;;;;;;1.50;0.40;;;8.40;99.90;;;;;;5107237;28;20237;-82
2023/03/14 03:52:36;;;;;;;1.13;0.50;;;8.40;99.90;;;;;;5102984;28;20203;-83
2023/03/14 03:55:04;;;;;;;0.33;0.33;;;8.50;99.90;;;;;;5104865;28;20232;-81
2023/03/14 03:57:32;;;;;;;0.30;0.30;;;8.40;99.90;;;;;;5105668;28;20245;-80
2023/03/14 04:00:00;;;;;;;0.90;0.50;;;8.50;99.90;;;;;;5107066;28;20210;-80
2023/03/14 04:02:29;;;;;;;2.57;0.50;;;8.40;99.90;;;;;;5109520;28;20249;-81
2023/03/14 04:04:57;;;;;;;0.70;0.30;;;8.50;99.90;;;;;;5110985;28;20230;-82
2023/03/14 04:07:27;;;;;;;0.30;0.30;;;8.50;99.90;;;;;;5104105;28;20276;-81
2023/03/14 04:09:55;;;;;;;0.57;0.27;;;8.50;99.90;;;;;;5101321;28;20297;-82
2023/03/14 04:12:23;;;;;;;0.27;0.27;;;8.50;99.90;;;;;;5106566;28;20230;-81
2023/03/14 04:14:51;;;;;;;0.53;0.30;;;8.50;99.90;;;;;;5101865;28;20211;-80
2023/03/14 04:17:19;;;;;;;0.93;0.30;;;8.50;99.90;;;;;;5093291;28;20221;-80
2023/03/14 04:19:53;;;;;;;1.00;0.30;;;8.50;99.90;;;;;;5077948;28;20341;-81
2023/03/14 04:22:21;;;;;;;1.07;0.40;;;8.50;99.90;;;;;;5077795;28;20191;-80
2023/03/14 04:24:50;;;;;;;0.50;0.40;;;8.50;99.90;;;;;;5077303;28;20207;-80
2023/03/14 04:27:19;;;;;;;0.50;0.20;;;8.50;99.90;;;;;;5094088;28;20656;-80
2023/03/14 04:29:47;;;;;;;0.10;0.10;;;8.50;99.90;;;;;;5096180;28;20209;-82
2023/03/14 04:32:15;;;;;;;0.43;0.30;;;8.40;99.90;;;;;;5093916;28;20210;-80
2023/03/14 04:34:43;;;;;;;1.23;0.30;;;8.40;99.90;;;;;;5095112;28;20234;-81
2023/03/14 04:37:11;;;;;;;0.37;0.30;;;8.40;99.90;;;;;;5095329;28;20353;-80
2023/03/14 04:39:40;;;;;;;0.70;0.30;;;8.50;99.90;;;;;;5091784;28;20583;-82
2023/03/14 04:42:09;;;;;;;0.43;0.20;;;8.50;99.90;;;;;;5086488;28;20210;-82
2023/03/14 04:44:38;;;;;;;0.73;0.23;;;8.50;99.90;;;;;;5094615;28;20711;-80
2023/03/14 04:47:06;;;;;;;0.20;0.20;;;8.50;99.90;;;;;;5093853;28;20249;-82
2023/03/14 04:49:34;;;;;;;0.50;0.40;;;8.40;99.90;;;;;;5094023;28;20641;-81
2023/03/14 04:52:03;;;;;;;0.40;0.40;;;8.40;99.90;;;;;;5092804;28;20216;-80
2023/03/14 04:54:31;;;;;;;0.30;0.30;;;8.40;99.90;;;;;;5093801;28;20218;-79
2023/03/14 04:56:59;;;;;;;0.50;0.40;;;8.30;99.90;;;;;;5097679;28;20301;-80
2023/03/14 04:59:29;;;;;;;0.53;0.53;;;8.30;99.90;;;;;;5094436;28;20219;-81
2023/03/14 05:01:57;;;;;;;0.30;0.30;;;8.30;99.90;;;;;;5093669;28;20712;-80
2023/03/14 05:04:25;;;;;;;0.97;0.40;;;8.30;99.90;;;;;;5093498;28;20199;-81
2023/03/14 05:06:53;;;;;;;0.73;0.43;;;8.30;99.90;;;;;;5094344;28;20262;-79
2023/03/14 05:09:22;;;;;;;0.63;0.33;;;8.30;99.90;;;;;;5094335;28;20211;-81
2023/03/14 05:11:50;;;;;;;1.10;1.00;;;8.30;99.90;;;;;;5093500;28;20310;-81
2023/03/14 05:14:18;;;;;;;0.83;0.50;;;8.30;99.90;;;;;;5092635;28;20218;-80
2023/03/14 05:16:48;;;;;;;0.30;0.30;;;8.20;99.90;;;;;;5093867;28;20209;-80
2023/03/14 05:19:16;;;;;;;0.90;0.30;;;8.20;99.90;;;;;;5075376;28;20411;-80
2023/03/14 05:21:45;;;;;;;0.53;0.40;;;8.20;99.90;;;;;;5073336;28;20225;-80
2023/03/14 05:24:13;;;;;;;0.20;0.20;;;8.20;99.90;;;;;;5073567;28;20624;-80
2023/03/14 05:26:41;;;;;;;0.20;0.20;;;8.20;99.90;;;;;;5088491;28;20675;-81
2023/03/14 05:29:09;;;;;;;1.30;0.40;;;8.20;99.90;;;;;;5093567;28;20233;-81
2023/03/14 05:31:38;;;;;;;0.33;0.30;;;8.20;99.90;;;;;;5094406;28;20206;-80
2023/03/14 05:34:07;;;;;;;0.33;0.30;;;8.10;99.90;;;;;;5094647;28;20202;-77
2023/03/14 05:36:35;;;;;;;1.43;0.30;;;8.10;99.90;;;;;;5085477;28;20247;-79
2023/03/14 05:39:04;;;;;;;0.30;0.20;;;8.20;99.90;;;;;;5095312;28;20314;-80
2023/03/14 05:41:32;;;;;;;0.70;0.37;;;8.20;99.90;;;;;;5097489;28;20233;-79
2023/03/14 05:44:00;;;;;;;0.70;0.33;;;8.20;99.90;;;;;;5095429;28;20215;-80
2023/03/14 05:46:30;;;;;;;0.40;0.40;;;8.20;99.90;;;;;;5087010;28;20215;-80
2023/03/14 05:48:59;;;;;;;0.70;0.43;;;8.10;99.90;;;;;;5075177;28;20207;-79
2023/03/14 05:51:28;;;;;;;0.40;0.40;;;8.10;99.90;;;;;;5074986;28;20707;-79
2023/03/14 05:53:56;;;;;;;0.40;0.30;;;8.10;99.90;;;;;;5071097;28;20218;-82
2023/03/14 05:56:25;;;;;;;0.37;0.37;;;8.10;99.90;;;;;;5091788;28;20281;-80
2023/03/14 05:58:53;;;;;;;0.57;0.30;;;8.00;99.90;;;;;;5092811;28;20210;-80
2023/03/14 06:01:21;;;;;;;2.23;0.60;;;8.10;99.90;;;;;;5073796;28;20689;-81
2023/03/14 06:03:49;;;;;;;0.83;0.40;;;8.10;99.90;;;;;;5074289;28;20235;-81
2023/03/14 06:06:17;;;;;;;1.03;0.43;;;8.00;99.90;;;;;;5074401;28;20259;-79
2023/03/14 06:08:47;;;;;;;0.67;0.47;;;8.00;99.90;;;;;;5074319;28;20229;-80
2023/03/14 06:11:17;;;;;;;1.50;0.30;;;8.10;99.90;;;;;;5080877;28;20202;-80
2023/03/14 06:13:46;;;;;;;0.50;0.50;;;8.10;99.90;;;;;;5076375;28;20211;-81
2023/03/14 06:16:14;;;;;;;0.87;0.50;;;8.10;99.90;;;;;;5076107;28;20207;-81
2023/03/14 06:18:42;;;;;;;0.30;0.30;;;8.10;99.90;;;;;;5074810;28;20219;-80
2023/03/14 06:21:10;;;;;;;0.37;0.20;;;8.10;99.90;;;;;;5074056;28;20207;-79
2023/03/14 06:23:38;;;;;;;0.53;0.40;;;8.20;99.90;;;;;;5073709;28;20250;-81
2023/03/14 06:26:08;;;;;;;0.30;0.30;;;8.10;99.90;;;;;;5074661;28;20207;-80
2023/03/14 06:28:36;;;;;;;0.30;0.30;;;8.20;99.90;;;;;;5092754;28;20353;-81
2023/03/14 06:31:06;;;;;;;0.57;0.50;;;8.20;99.90;;;;;;5095244;28;20253;-80
2023/03/14 06:33:34;;;;;;;0.43;0.40;;;8.20;99.90;;;;;;5096773;28;20233;-80
2023/03/14 06:36:02;;;;;;;1.37;0.43;;;8.20;99.90;;;;;;5093450;28;20202;-82
2023/03/14 06:38:30;;;;;;;0.30;0.30;;;8.30;99.90;;;;;;5093735;28;20233;-79
2023/03/14 06:41:04;;;;;;;0.80;0.40;;;8.30;99.90;;;;;;5093295;28;20245;-80
2023/03/14 06:43:34;;;;;;;0.90;0.50;;;8.30;99.90;;;;;;5093822;28;20244;-80
2023/03/14 06:46:02;;;;;;;0.30;0.30;;;8.30;99.90;;;;;;5094718;28;20229;-81
2023/03/14 06:48:30;;;;;;;0.50;0.50;;;8.30;99.90;;;;;;5095547;28;20229;-82
2023/03/14 06:50:58;;;;;;;0.73;0.30;;;8.40;99.90;;;;;;5095286;28;20305;-80
2023/03/14 06:53:27;;;;;;;0.23;0.23;;;8.40;99.90;;;;;;5094000;28;20206;-79
2023/03/14 06:55:55;;;;;;;0.43;0.33;;;8.50;99.90;;;;;;5099564;28;20714;-81
2023/03/14 06:58:23;;;;;;;0.57;0.57;;;8.50;99.90;;;;;;5102019;28;20237;-82
2023/03/14 07:00:54;;;;;;;0.30;0.30;;;8.60;99.90;;;;;;5104240;28;20230;-80
2023/03/14 07:03:22;;;;;;;0.50;0.30;;;8.70;99.90;;;;;;5100660;28;20202;-80
2023/03/14 07:05:50;;;;;;;1.47;0.50;;;8.80;99.90;;;;;;5103814;28;20218;-80
2023/03/14 07:08:19;;;;;;;0.50;0.50;;;9.00;99.90;;;;;;5103755;28;20245;-81
2023/03/14 07:10:47;;;;;;;0.77;0.70;;;9.10;99.90;;;;;;5105255;28;20237;-82
2023/03/14 07:13:15;;;;;;;0.47;0.47;;;9.10;99.90;;;;;;5101622;28;20270;-81
2023/03/14 07:15:43;;;;;;;0.77;0.47;;;9.20;99.90;;;;;;5106046;28;20253;-79
2023/03/14 07:18:13;;;;;;;0.20;0.20;;;9.10;99.90;;;;;;5100346;28;20252;-80
2023/03/14 07:20:41;;;;;;;1.17;0.50;;;9.20;99.90;;;;;;5100494;28;20290;-79
2023/03/14 07:23:09;;;;;;;0.60;0.57;;;9.20;99.90;;;;;;5090586;28;20330;-80
2023/03/14 07:25:37;;;;;;;1.03;0.30;;;9.10;99.90;;;;;;5099385;28;20214;-80
2023/03/14 07:28:06;;;;;;;0.50;0.30;;;9.20;99.90;;;;;;5111587;28;20219;-80
2023/03/14 07:30:34;;;;;;;0.70;0.33;;;9.20;99.90;;;;;;5109505;28;20210;-79
2023/03/14 07:33:02;;;;;;;0.50;0.50;;;9.10;99.90;;;;;;5110226;28;20239;-79
2023/03/14 07:35:32;;;;;;;0.50;0.50;;;9.20;99.90;;;;;;5113980;28;20183;-81
2023/03/14 07:38:00;;;;;;;2.73;0.70;;;9.20;99.90;;;;;;5105084;28;20230;-81
2023/03/14 07:40:28;;;;;;;1.00;0.57;;;9.20;99.90;;;;;;5106735;28;20303;-82
2023/03/14 07:42:57;;;;;;;1.87;0.77;;;9.20;99.90;;;;;;5113429;28;20217;-80
2023/03/14 07:45:25;;;;;;;0.30;0.30;;;9.20;99.90;;;;;;5113958;28;20206;-81
2023/03/14 07:47:57;;;;;;;0.60;0.40;;;9.20;99.90;;;;;;5109846;28;20199;-80
2023/03/14 07:50:25;;;;;;;0.80;0.40;;;9.20;99.90;;;;;;5107603;28;20199;-79
2023/03/14 07:52:55;;;;;;;0.73;0.50;;;9.20;99.90;;;;;;5107095;28;20211;-81
2023/03/14 07:55:23;;;;;;;0.30;0.30;;;9.20;99.90;;;;;;5108019;28;20195;-80
2023/03/14 07:57:52;;;;;;;0.80;0.70;;;9.20;99.90;;;;;;5108828;28;20233;-81
2023/03/14 08:00:21;;;;;;;0.73;0.70;;;9.30;99.90;;;;;;5108853;28;20289;-81
2023/03/14 08:02:49;;;;;;;2.63;0.67;;;9.30;99.90;;;;;;5110698;28;20198;-80
2023/03/14 08:05:18;;;;;;;3.23;0.80;;;9.40;99.90;;;;;;5108159;28;20226;-81
2023/03/14 08:07:46;;;;;;;3.17;1.00;;;9.50;99.90;;;;;;5104380;28;20490;-81
2023/03/14 08:10:24;;;;;;;2.33;1.00;;;9.50;99.90;;;;;;5109794;28;20660;-80
2023/03/14 08:12:54;;;;;;;0.93;0.77;;;9.60;99.90;;;;;;5111685;28;20191;-80
2023/03/14 08:15:23;;;;;;;1.00;0.70;;;9.70;99.90;;;;;;5110387;28;20203;-80
2023/03/14 08:17:53;;;;;;;0.60;0.60;;;9.70;99.90;;;;;;5104868;28;20257;-80
2023/03/14 08:20:23;;;;;;;0.60;0.60;;;9.80;99.90;;;;;;5109172;28;20694;-78
2023/03/14 08:22:51;;;;;;;1.20;0.67;;;9.90;99.90;;;;;;5111118;28;20274;-79
2023/03/14 08:25:21;;;;;;;1.53;0.40;;;10.00;99.90;;;;;;5111087;28;20207;-79
2023/03/14 08:27:49;;;;;;;0.40;0.40;;;10.10;99.90;;;;;;5109049;28;20223;-80
2023/03/14 08:30:18;;;;;;;0.40;0.40;;;10.10;99.90;;;;;;5107294;28;20286;-78
2023/03/14 08:32:47;;;;;;;1.60;0.60;;;10.10;99.90;;;;;;5105279;28;20226;-79
2023/03/14 08:35:16;;;;;;;1.57;0.50;;;10.20;99.90;;;;;;5107972;28;20210;-78
2023/03/14 08:37:44;;;;;;;1.23;0.40;;;10.20;99.90;;;;;;5105345;28;20235;-80
2023/03/14 08:40:13;;;;;;;0.47;0.43;;;10.30;99.90;;;;;;5107998;28;20207;-78
2023/03/14 08:42:42;;;;;;;0.30;0.30;;;10.30;99.90;;;;;;5110264;28;20829;-80
2023/03/14 08:45:16;;;;;;;0.30;0.30;;;10.30;99.90;;;;;;5108601;28;20230;-77
2023/03/14 08:47:44;;;;;;;0.40;0.40;;;10.30;99.90;;;;;;5106638;28;20198;-78
2023/03/14 08:50:13;;;;;;;0.40;0.40;;;10.30;99.90;;;;;;5107853;28;20271;-78
2023/03/14 08:52:43;;;;;;;8.37;3.23;;;10.30;99.90;;;;;;5108949;28;20191;-79
2023/03/14 08:55:12;;;;;;;2.40;0.80;;;10.60;99.90;;;;;;5106473;28;20215;-80
2023/03/14 08:57:42;;;;;;;3.60;0.60;;;10.70;99.90;;;;;;5108476;28;20207;-79
2023/03/14 09:00:14;;;;;;;2.50;0.70;;;10.90;99.90;;;;;;5103084;28;20658;-78
2023/03/14 09:02:42;;;;;;;1.37;0.43;;;11.00;99.90;;;;;;5105765;28;20195;-78
2023/03/14 09:05:11;;;;;;;0.40;0.40;;;11.20;99.90;;;;;;5102903;28;20207;-80
2023/03/14 09:07:40;;;;;;;0.40;0.40;;;11.30;99.90;;;;;;5115152;28;20218;-78
2023/03/14 09:10:11;;;;;;;1.57;0.60;;;11.30;99.90;;;;;;5113203;28;20241;-78
2023/03/14 09:12:39;;;;;;;2.53;0.50;;;11.40;99.90;;;;;;5105954;28;20240;-79
2023/03/14 09:15:10;;;;;;;2.43;1.07;;;11.30;99.90;;;;;;5104757;28;20236;-77
2023/03/14 09:17:38;;;;;;;1.23;0.70;;;11.00;99.90;;;;;;5104791;28;20235;-77
2023/03/14 09:20:08;;;;;;;1.47;0.50;;;11.10;99.90;;;;;;5105416;28;20214;-78
2023/03/14 09:22:37;;;;;;;1.40;0.60;;;11.00;99.90;;;;;;5105591;28;20235;-78
2023/03/14 09:25:05;;;;;;;2.87;0.40;;;11.10;99.90;;;;;;5101006;28;20234;-78
2023/03/14 09:27:34;;;;;;;0.90;0.70;;;11.10;99.90;;;;;;5086402;28;20207;-80
2023/03/14 09:30:02;;;;;;;0.60;0.40;;;11.20;99.90;;;;;;5094426;28;20202;-78
2023/03/14 09:32:32;;;;;;;0.50;0.50;;;11.20;99.90;;;;;;5092808;28;20235;-78
2023/03/14 09:35:00;;;;;;;1.57;0.40;;;11.40;99.90;;;;;;5097935;28;20210;-79
2023/03/14 09:37:29;;;;;;;3.63;0.60;;;11.40;99.90;;;;;;5097500;28;20218;-79
2023/03/14 09:39:57;;;;;;;0.57;0.50;;;11.50;99.90;;;;;;5096414;28;20210;-78
2023/03/14 09:42:28;;;;;;;0.43;0.43;;;11.40;99.90;;;;;;5096027;28;20219;-78
2023/03/14 09:45:02;;;;;;;1.43;0.50;;;11.50;99.90;;;;;;5094637;28;20653;-79
2023/03/14 09:47:35;;;;;;;0.47;0.40;;;11.60;99.90;;;;;;5077240;28;20605;-77
2023/03/14 09:50:15;;;;;;;1.17;0.60;;;11.70;99.90;;;;;;5096132;28;20244;-79
2023/03/14 09:52:47;;;;;;;0.50;0.40;;;11.70;99.90;;;;;;5093131;28;20206;-80
2023/03/14 09:55:21;;;;;;;1.10;0.30;;;11.80;99.90;;;;;;5094384;28;20242;-79
2023/03/14 09:57:51;;;;;;;3.90;2.10;;;11.70;99.90;;;;;;5094627;28;20616;-77
2023/03/14 10:00:22;;;;;;;3.27;2.10;;;11.70;99.90;;;;;;5095496;28;20560;-79
2023/03/14 10:02:55;;;;;;;0.60;0.60;;;11.60;99.90;;;;;;5095673;28;20211;-79
2023/03/14 10:05:33;;;;;;;0.70;0.40;;;11.50;99.90;;;;;;5093096;28;20238;-79
2023/03/14 10:08:04;;;;;;;0.30;0.20;;;11.40;99.90;;;;;;5093521;28;20230;-78
2023/03/14 10:10:33;;;;;;;0.87;0.60;;;11.20;99.90;;;;;;5092814;28;20579;-79
2023/03/14 10:13:13;;;;;;;0.87;0.60;;;11.20;99.90;;;;;;5092216;28;20242;-79
2023/03/14 10:15:42;;;;;;;0.40;0.40;;;11.10;99.90;;;;;;5093033;28;20253;-79
2023/03/14 10:18:13;;;;;;;0.70;0.70;;;11.00;99.90;;;;;;5092309;28;20211;-79
2023/03/14 10:20:44;;;;;;;0.77;0.50;;;10.90;99.90;;;;;;5093160;28;20191;-80
2023/03/14 10:23:27;;;;;;;4.40;0.60;;;11.30;99.90;;;;;;5092095;28;20227;-78
2023/03/14 10:26:09;;;;;;;1.13;0.53;;;11.60;99.90;;;;;;5091709;28;20605;-79
2023/03/14 10:28:40;;;;;;;1.17;0.80;;;11.80;99.90;;;;;;5095124;28;20214;-78
2023/03/14 10:31:09;;;;;;;2.10;0.70;;;11.80;99.90;;;;;;5096673;28;20199;-79
2023/03/14 10:33:39;;;;;;;0.90;0.67;;;12.00;99.90;;;;;;5095905;28;20248;-79
2023/03/14 10:36:20;;;;;;;2.20;0.70;;;12.00;99.90;;;;;;5096800;28;20253;-80
2023/03/14 10:38:49;;;;;;;0.83;0.67;;;12.10;99.90;;;;;;5095673;28;20694;-78
2023/03/14 10:41:21;;;;;;;1.03;0.53;;;11.90;99.90;;;;;;5096420;28;20610;-79
2023/03/14 10:43:52;;;;;;;4.93;0.70;;;11.90;99.90;;;;;;5095216;28;20218;-79
2023/03/14 10:46:21;;;;;;;0.70;0.60;;;11.90;99.90;;;;;;5095639;28;20214;-79
2023/03/14 10:48:52;;;;;;;2.00;0.60;;;12.00;99.90;;;;;;5075826;28;20208;-77
2023/03/14 10:51:26;;;;;;;1.10;0.80;;;12.50;99.90;;;;;;5076159;28;20227;-78
2023/03/14 10:53:59;;;;;;;2.40;0.70;;;13.00;99.90;;;;;;5075585;28;20213;-78
2023/03/14 10:56:33;;;;;;;1.50;0.80;;;13.20;99.90;;;;;;5077336;28;20215;-80
2023/03/14 10:59:02;;;;;;;2.93;0.80;;;13.50;99.90;;;;;;5095976;28;20276;-77
2023/03/14 11:01:45;;;;;;;2.07;0.70;;;13.60;99.90;;;;;;5095359;28;20226;-78
2023/03/14 11:04:31;;;;;;;0.83;0.70;;;13.50;99.90;;;;;;5096299;28;20283;-80
2023/03/14 11:07:07;;;;;;;1.60;0.60;;;13.30;99.90;;;;;;5095107;28;20199;-78
2023/03/14 11:09:42;;;;;;;1.47;0.60;;;13.00;99.90;;;;;;5096151;28;20645;-77
2023/03/14 11:12:31;;;;;;;1.63;0.53;;;12.90;99.90;;;;;;5094832;28;20648;-78
2023/03/14 11:15:06;;;;;;;1.07;0.53;;;12.50;99.90;;;;;;5094785;28;20211;-77
2023/03/14 11:17:42;;;;;;;0.83;0.63;;;12.30;99.90;;;;;;5094944;28;20305;-76
2023/03/14 11:20:25;;;;;;;0.87;0.50;;;12.30;99.90;;;;;;5095333;28;20187;-78
2023/03/14 11:23:00;;;;;;;0.63;0.60;;;12.20;99.90;;;;;;5094068;28;20244;-78
2023/03/14 11:25:37;;;;;;;0.70;0.60;;;12.00;99.90;;;;;;5094981;28;20641;-79
2023/03/14 11:28:16;;;;;;;0.87;0.60;;;11.90;99.90;;;;;;5095383;28;20224;-77
2023/03/14 11:30:51;;;;;;;0.83;0.80;;;11.80;99.90;;;;;;5095260;28;20195;-78
2023/03/14 11:33:24;;;;;;;1.67;1.30;;;11.80;99.90;;;;;;5094759;28;20664;-78
2023/03/14 11:36:02;;;;;;;0.77;0.77;;;11.80;99.90;;;;;;5095392;28;20691;-78
2023/03/14 11:38:38;;;;;;;3.07;1.13;;;11.90;99.90;;;;;;5096067;28;20202;-78
2023/03/14 11:41:12;;;;;;;6.30;3.10;;;12.10;99.90;;;;;;5093766;28;20223;-79
2023/03/14 11:43:42;;;;;;;3.83;1.60;;;12.30;99.90;;;;;;5094736;28;20233;-79
2023/03/14 11:46:15;;;;;;;1.43;1.00;;;12.50;99.90;;;;;;5095850;28;20195;-79
2023/03/14 11:48:49;;;;;;;3.73;2.13;;;12.70;99.90;;;;;;5090399;28;20207;-77
2023/03/14 11:51:24;;;;;;;4.57;2.60;;;12.80;99.90;;;;;;5074197;28;20295;-79
2023/03/14 11:53:59;;;;;;;2.03;1.30;;;12.80;99.90;;;;;;5092275;28;20202;-79
2023/03/14 11:56:33;;;;;;;1.50;1.17;;;12.90;99.90;;;;;;5094236;28;20218;-77
2023/03/14 11:59:05;;;;;;;1.63;0.90;;;13.20;99.90;;;;;;5092161;28;20635;-78
2023/03/14 12:01:53;;;;;;;3.40;0.87;;;13.20;99.90;;;;;;5093608;28;20278;-77
2023/03/14 12:04:35;;;;;;;3.27;0.70;;;13.00;99.90;;;;;;5094300;28;20198;-79
2023/03/14 12:07:10;;;;;;;1.73;0.60;;;12.80;99.90;;;;;;5093914;28;20187;-79
2023/03/14 12:09:39;;;;;;;1.13;0.80;;;12.60;99.90;;;;;;5092006;28;20218;-78
2023/03/14 12:12:12;;;;;;;0.80;0.80;;;12.70;99.90;;;;;;5093316;28;20261;-77
2023/03/14 12:14:53;;;;;;;1.40;0.80;;;12.60;99.90;;;;;;5093391;28;20193;-77
2023/03/14 12:17:23;;;;;;;1.13;0.50;;;12.50;99.90;;;;;;5093059;28;20290;-78
2023/03/14 12:20:06;;;;;;;0.70;0.70;;;12.40;99.90;;;;;;5093807;28;20246;-78
2023/03/14 12:22:36;;;;;;;1.57;1.07;;;12.40;99.90;;;;;;5093368;28;20694;-77
2023/03/14 12:25:16;;;;;;;2.40;1.70;;;12.40;99.90;;;;;;5092316;28;20589;-77
2023/03/14 12:28:15;;;;;;;0.87;0.33;;;12.40;99.90;;;;;;5086943;28;20187;-79
2023/03/14 12:30:43;;;;;;;1.23;0.40;;;12.30;99.90;;;;;;5086800;28;20206;-78
2023/03/14 12:33:27;;;;;;;1.70;0.97;;;12.30;99.90;;;;;;5086420;28;20231;-79
2023/03/14 12:36:04;;;;;;;2.80;1.67;;;12.20;99.90;;;;;;5091992;28;20195;-77
2023/03/14 12:38:48;;;;;;;2.00;1.30;;;12.10;99.90;;;;;;5075544;28;20223;-79
2023/03/14 12:41:21;;;;;;;0.87;0.80;;;12.30;99.90;;;;;;5082615;28;20211;-79
2023/03/14 12:43:49;;;;;;;2.20;1.00;;;12.20;99.90;;;;;;5092576;28;20779;-77
2023/03/14 12:46:26;;;;;;;2.87;1.00;;;12.10;99.90;;;;;;5093489;28;20290;-79
2023/03/14 12:49:07;;;;;;;2.33;0.87;;;12.00;99.90;;;;;;5089610;28;20203;-79
2023/03/14 12:51:37;;;;;;;1.17;0.90;;;12.10;99.90;;;;;;5072690;28;20634;-77
2023/03/14 12:54:39;;;;;;;1.13;0.50;;;12.10;99.90;;;;;;5091873;28;20207;-77
2023/03/14 12:57:27;;;;;;;1.33;1.23;;;12.20;99.90;;;;;;5092910;28;20195;-78
2023/03/14 12:59:58;;;;;;;3.77;2.47;;;12.30;99.90;;;;;;5072994;28;20729;-79
2023/03/14 13:02:29;;;;;;;1.80;1.47;;;12.50;99.90;;;;;;5073046;28;20246;-78
2023/03/14 13:05:11;;;;;;;2.63;0.60;;;12.60;99.90;;;;;;5079682;28;20202;-78
2023/03/14 13:08:06;;;;;;;1.00;0.90;;;12.60;99.90;;;;;;5091729;28;21023;-78
2023/03/14 13:10:49;;;;;;;0.40;0.40;;;12.60;99.90;;;;;;5092175;28;20222;-78